sensor_id;sensor_type;location;lat;lon;timestamp;P1;durP1;ratioP1;P2;durP2;ratioP2
21733;SDS011;11029;47.820;10.534;2023-07-29T00:01:31;2.22;;;1.52;;
21733;SDS011;11029;47.820;10.534;2023-07-29T00:04:00;2.80;;;2.05;;
21733;SDS011;11029;47.820;10.534;2023-07-29T00:06:27;4.53;;;2.00;;
21733;SDS011;11029;47.820;10.534;2023-07-29T00:08:54;2.03;;;1.80;;
21733;SDS011;11029;47.820;10.534;2023-07-29T00:11:20;3.45;;;1.98;;
21733;SDS011;11029;47.820;10.534;2023-07-29T00:13:47;2.13;;;1.95;;
21733;SDS011;11029;47.820;10.534;2023-07-29T00:16:16;2.30;;;1.95;;
21733;SDS011;11029;47.820;10.534;2023-07-29T00:18:43;2.08;;;1.88;;
21733;SDS011;11029;47.820;10.534;2023-07-29T00:21:10;2.00;;;1.70;;
21733;SDS011;11029;47.820;10.534;2023-07-29T00:23:37;2.72;;;2.05;;
21733;SDS011;11029;47.820;10.534;2023-07-29T00:26:04;2.10;;;1.90;;
21733;SDS011;11029;47.820;10.534;2023-07-29T00:28:31;2.03;;;1.83;;
21733;SDS011;11029;47.820;10.534;2023-07-29T00:30:58;2.33;;;1.90;;
21733;SDS011;11029;47.820;10.534;2023-07-29T00:33:25;2.25;;;2.05;;
21733;SDS011;11029;47.820;10.534;2023-07-29T00:35:52;3.33;;;1.90;;
21733;SDS011;11029;47.820;10.534;2023-07-29T00:38:19;2.97;;;2.05;;
21733;SDS011;11029;47.820;10.534;2023-07-29T00:40:46;2.70;;;2.22;;
21733;SDS011;11029;47.820;10.534;2023-07-29T00:43:14;2.90;;;2.60;;
21733;SDS011;11029;47.820;10.534;2023-07-29T00:45:40;2.22;;;2.13;;
21733;SDS011;11029;47.820;10.534;2023-07-29T00:48:09;2.58;;;2.38;;
21733;SDS011;11029;47.820;10.534;2023-07-29T00:50:36;2.40;;;2.00;;
21733;SDS011;11029;47.820;10.534;2023-07-29T00:53:03;2.45;;;2.25;;
21733;SDS011;11029;47.820;10.534;2023-07-29T00:55:30;2.58;;;2.20;;
21733;SDS011;11029;47.820;10.534;2023-07-29T00:57:57;2.13;;;2.03;;
21733;SDS011;11029;47.820;10.534;2023-07-29T01:00:24;2.33;;;2.13;;
21733;SDS011;11029;47.820;10.534;2023-07-29T01:02:52;2.60;;;2.40;;
21733;SDS011;11029;47.820;10.534;2023-07-29T01:05:21;3.10;;;2.25;;
21733;SDS011;11029;47.820;10.534;2023-07-29T01:10:37;2.50;;;2.20;;
21733;SDS011;11029;47.820;10.534;2023-07-29T01:13:24;2.90;;;2.60;;
21733;SDS011;11029;47.820;10.534;2023-07-29T01:16:11;3.65;;;2.47;;
21733;SDS011;11029;47.820;10.534;2023-07-29T01:18:44;2.70;;;2.28;;
21733;SDS011;11029;47.820;10.534;2023-07-29T01:21:13;3.00;;;2.28;;
21733;SDS011;11029;47.820;10.534;2023-07-29T01:23:42;2.65;;;2.45;;
21733;SDS011;11029;47.820;10.534;2023-07-29T01:26:08;6.00;;;2.67;;
21733;SDS011;11029;47.820;10.534;2023-07-29T01:28:35;2.70;;;2.17;;
21733;SDS011;11029;47.820;10.534;2023-07-29T01:37:15;3.42;;;2.47;;
21733;SDS011;11029;47.820;10.534;2023-07-29T01:39:49;4.47;;;2.17;;
21733;SDS011;11029;47.820;10.534;2023-07-29T01:42:19;2.17;;;1.85;;
21733;SDS011;11029;47.820;10.534;2023-07-29T01:44:46;1.80;;;1.60;;
21733;SDS011;11029;47.820;10.534;2023-07-29T01:47:12;4.13;;;1.83;;
21733;SDS011;11029;47.820;10.534;2023-07-29T01:49:39;2.38;;;1.75;;
21733;SDS011;11029;47.820;10.534;2023-07-29T01:52:06;2.67;;;2.28;;
21733;SDS011;11029;47.820;10.534;2023-07-29T01:54:33;2.13;;;1.85;;
21733;SDS011;11029;47.820;10.534;2023-07-29T01:56:59;2.33;;;1.88;;
21733;SDS011;11029;47.820;10.534;2023-07-29T01:59:26;2.00;;;1.80;;
21733;SDS011;11029;47.820;10.534;2023-07-29T02:01:53;2.40;;;2.00;;
21733;SDS011;11029;47.820;10.534;2023-07-29T02:04:20;2.60;;;1.92;;
21733;SDS011;11029;47.820;10.534;2023-07-29T02:06:46;2.00;;;1.70;;
21733;SDS011;11029;47.820;10.534;2023-07-29T02:09:13;1.73;;;1.63;;
21733;SDS011;11029;47.820;10.534;2023-07-29T02:11:40;3.55;;;1.92;;
21733;SDS011;11029;47.820;10.534;2023-07-29T02:14:07;2.17;;;1.90;;
21733;SDS011;11029;47.820;10.534;2023-07-29T02:16:34;2.10;;;1.90;;
21733;SDS011;11029;47.820;10.534;2023-07-29T02:19:02;1.65;;;1.55;;
21733;SDS011;11029;47.820;10.534;2023-07-29T02:21:29;2.22;;;1.80;;
21733;SDS011;11029;47.820;10.534;2023-07-29T02:23:56;3.60;;;2.03;;
21733;SDS011;11029;47.820;10.534;2023-07-29T02:26:23;2.50;;;1.88;;
21733;SDS011;11029;47.820;10.534;2023-07-29T02:28:49;2.85;;;2.00;;
21733;SDS011;11029;47.820;10.534;2023-07-29T02:31:20;2.10;;;1.85;;
21733;SDS011;11029;47.820;10.534;2023-07-29T02:33:48;1.93;;;1.80;;
21733;SDS011;11029;47.820;10.534;2023-07-29T02:36:16;2.10;;;1.90;;
21733;SDS011;11029;47.820;10.534;2023-07-29T02:38:44;4.03;;;1.85;;
21733;SDS011;11029;47.820;10.534;2023-07-29T02:41:11;2.53;;;1.95;;
21733;SDS011;11029;47.820;10.534;2023-07-29T02:43:43;2.17;;;1.98;;
21733;SDS011;11029;47.820;10.534;2023-07-29T02:46:10;3.55;;;2.45;;
21733;SDS011;11029;47.820;10.534;2023-07-29T02:48:37;2.30;;;2.10;;
21733;SDS011;11029;47.820;10.534;2023-07-29T02:51:03;4.05;;;2.25;;
21733;SDS011;11029;47.820;10.534;2023-07-29T02:53:30;2.40;;;2.08;;
21733;SDS011;11029;47.820;10.534;2023-07-29T02:55:57;2.30;;;1.95;;
21733;SDS011;11029;47.820;10.534;2023-07-29T02:58:24;3.65;;;2.50;;
21733;SDS011;11029;47.820;10.534;2023-07-29T03:00:52;2.40;;;2.17;;
21733;SDS011;11029;47.820;10.534;2023-07-29T03:03:19;2.08;;;1.88;;
21733;SDS011;11029;47.820;10.534;2023-07-29T03:05:46;1.95;;;1.77;;
21733;SDS011;11029;47.820;10.534;2023-07-29T03:08:13;2.40;;;2.17;;
21733;SDS011;11029;47.820;10.534;2023-07-29T03:10:40;2.95;;;2.20;;
21733;SDS011;11029;47.820;10.534;2023-07-29T03:13:08;3.20;;;2.00;;
21733;SDS011;11029;47.820;10.534;2023-07-29T03:15:35;3.05;;;2.20;;
21733;SDS011;11029;47.820;10.534;2023-07-29T03:18:01;2.58;;;2.20;;
21733;SDS011;11029;47.820;10.534;2023-07-29T03:20:28;4.90;;;1.95;;
21733;SDS011;11029;47.820;10.534;2023-07-29T03:22:55;2.45;;;2.08;;
21733;SDS011;11029;47.820;10.534;2023-07-29T03:25:22;3.33;;;2.20;;
21733;SDS011;11029;47.820;10.534;2023-07-29T03:27:49;5.20;;;2.40;;
21733;SDS011;11029;47.820;10.534;2023-07-29T03:30:19;2.20;;;2.00;;
21733;SDS011;11029;47.820;10.534;2023-07-29T03:32:47;1.85;;;1.75;;
21733;SDS011;11029;47.820;10.534;2023-07-29T03:35:15;2.30;;;1.85;;
21733;SDS011;11029;47.820;10.534;2023-07-29T03:37:42;2.17;;;1.98;;
21733;SDS011;11029;47.820;10.534;2023-07-29T03:40:09;2.67;;;2.40;;
21733;SDS011;11029;47.820;10.534;2023-07-29T03:42:36;2.55;;;2.13;;
21733;SDS011;11029;47.820;10.534;2023-07-29T03:45:03;2.10;;;1.80;;
21733;SDS011;11029;47.820;10.534;2023-07-29T03:47:30;2.10;;;1.90;;
21733;SDS011;11029;47.820;10.534;2023-07-29T03:49:58;2.38;;;1.88;;
21733;SDS011;11029;47.820;10.534;2023-07-29T03:52:24;3.28;;;1.88;;
21733;SDS011;11029;47.820;10.534;2023-07-29T03:54:51;2.10;;;1.70;;
21733;SDS011;11029;47.820;10.534;2023-07-29T03:57:18;1.90;;;1.70;;
21733;SDS011;11029;47.820;10.534;2023-07-29T03:59:45;2.30;;;2.08;;
21733;SDS011;11029;47.820;10.534;2023-07-29T04:02:11;2.92;;;1.65;;
21733;SDS011;11029;47.820;10.534;2023-07-29T04:04:38;1.83;;;1.73;;
21733;SDS011;11029;47.820;10.534;2023-07-29T04:07:05;1.55;;;1.45;;
21733;SDS011;11029;47.820;10.534;2023-07-29T04:09:32;3.33;;;1.73;;
21733;SDS011;11029;47.820;10.534;2023-07-29T04:11:59;2.80;;;1.55;;
21733;SDS011;11029;47.820;10.534;2023-07-29T04:14:26;2.20;;;2.00;;
21733;SDS011;11029;47.820;10.534;2023-07-29T04:16:52;1.77;;;1.67;;
21733;SDS011;11029;47.820;10.534;2023-07-29T04:19:19;1.90;;;1.80;;
21733;SDS011;11029;47.820;10.534;2023-07-29T04:21:46;1.88;;;1.77;;
21733;SDS011;11029;47.820;10.534;2023-07-29T04:24:13;2.03;;;1.83;;
21733;SDS011;11029;47.820;10.534;2023-07-29T04:26:40;3.67;;;1.58;;
21733;SDS011;11029;47.820;10.534;2023-07-29T04:29:06;1.80;;;1.70;;
21733;SDS011;11029;47.820;10.534;2023-07-29T04:31:33;1.80;;;1.70;;
21733;SDS011;11029;47.820;10.534;2023-07-29T04:34:00;2.08;;;1.88;;
21733;SDS011;11029;47.820;10.534;2023-07-29T04:36:28;1.98;;;1.80;;
21733;SDS011;11029;47.820;10.534;2023-07-29T04:38:55;2.28;;;2.00;;
21733;SDS011;11029;47.820;10.534;2023-07-29T04:41:22;2.60;;;1.90;;
21733;SDS011;11029;47.820;10.534;2023-07-29T04:43:50;2.13;;;1.92;;
21733;SDS011;11029;47.820;10.534;2023-07-29T04:46:19;2.63;;;1.92;;
21733;SDS011;11029;47.820;10.534;2023-07-29T04:48:46;2.10;;;1.88;;
21733;SDS011;11029;47.820;10.534;2023-07-29T04:51:13;1.88;;;1.77;;
21733;SDS011;11029;47.820;10.534;2023-07-29T04:53:40;2.65;;;2.08;;
21733;SDS011;11029;47.820;10.534;2023-07-29T04:56:07;2.95;;;2.22;;
21733;SDS011;11029;47.820;10.534;2023-07-29T04:58:33;2.40;;;2.20;;
21733;SDS011;11029;47.820;10.534;2023-07-29T05:01:02;2.13;;;1.92;;
21733;SDS011;11029;47.820;10.534;2023-07-29T05:03:29;1.77;;;1.65;;
21733;SDS011;11029;47.820;10.534;2023-07-29T05:05:57;2.22;;;2.03;;
21733;SDS011;11029;47.820;10.534;2023-07-29T05:08:26;2.13;;;1.85;;
21733;SDS011;11029;47.820;10.534;2023-07-29T05:10:53;2.38;;;1.80;;
21733;SDS011;11029;47.820;10.534;2023-07-29T05:13:20;2.47;;;2.28;;
21733;SDS011;11029;47.820;10.534;2023-07-29T05:15:48;2.00;;;1.80;;
21733;SDS011;11029;47.820;10.534;2023-07-29T05:18:16;1.83;;;1.70;;
21733;SDS011;11029;47.820;10.534;2023-07-29T05:20:44;3.13;;;2.42;;
21733;SDS011;11029;47.820;10.534;2023-07-29T05:23:11;2.30;;;1.85;;
21733;SDS011;11029;47.820;10.534;2023-07-29T05:25:38;4.00;;;2.20;;
21733;SDS011;11029;47.820;10.534;2023-07-29T05:28:05;3.03;;;2.67;;
21733;SDS011;11029;47.820;10.534;2023-07-29T05:30:32;3.92;;;2.45;;
21733;SDS011;11029;47.820;10.534;2023-07-29T05:33:00;5.40;;;2.80;;
21733;SDS011;11029;47.820;10.534;2023-07-29T05:35:27;5.03;;;2.80;;
21733;SDS011;11029;47.820;10.534;2023-07-29T05:37:54;3.00;;;2.50;;
21733;SDS011;11029;47.820;10.534;2023-07-29T05:40:21;3.47;;;2.50;;
21733;SDS011;11029;47.820;10.534;2023-07-29T05:42:48;3.13;;;2.45;;
21733;SDS011;11029;47.820;10.534;2023-07-29T05:45:14;2.30;;;2.10;;
21733;SDS011;11029;47.820;10.534;2023-07-29T05:47:41;2.92;;;2.58;;
21733;SDS011;11029;47.820;10.534;2023-07-29T05:50:09;2.78;;;2.40;;
21733;SDS011;11029;47.820;10.534;2023-07-29T05:52:36;2.30;;;2.10;;
21733;SDS011;11029;47.820;10.534;2023-07-29T05:55:03;2.30;;;2.10;;
21733;SDS011;11029;47.820;10.534;2023-07-29T05:57:30;3.90;;;2.35;;
21733;SDS011;11029;47.820;10.534;2023-07-29T05:59:57;2.63;;;2.42;;
21733;SDS011;11029;47.820;10.534;2023-07-29T06:02:25;2.97;;;2.35;;
21733;SDS011;11029;47.820;10.534;2023-07-29T06:04:52;3.13;;;2.70;;
21733;SDS011;11029;47.820;10.534;2023-07-29T06:07:19;3.03;;;2.50;;
21733;SDS011;11029;47.820;10.534;2023-07-29T06:09:45;2.65;;;2.33;;
21733;SDS011;11029;47.820;10.534;2023-07-29T06:12:12;3.67;;;2.72;;
21733;SDS011;11029;47.820;10.534;2023-07-29T06:14:39;2.97;;;2.72;;
21733;SDS011;11029;47.820;10.534;2023-07-29T06:17:07;3.20;;;2.90;;
21733;SDS011;11029;47.820;10.534;2023-07-29T06:19:40;2.88;;;2.58;;
21733;SDS011;11029;47.820;10.534;2023-07-29T06:22:10;2.72;;;2.53;;
21733;SDS011;11029;47.820;10.534;2023-07-29T06:24:37;3.05;;;2.75;;
21733;SDS011;11029;47.820;10.534;2023-07-29T06:27:04;3.20;;;2.78;;
21733;SDS011;11029;47.820;10.534;2023-07-29T06:29:31;3.40;;;2.42;;
21733;SDS011;11029;47.820;10.534;2023-07-29T06:31:58;3.63;;;3.00;;
21733;SDS011;11029;47.820;10.534;2023-07-29T06:34:25;3.60;;;2.50;;
21733;SDS011;11029;47.820;10.534;2023-07-29T06:36:52;3.30;;;2.55;;
21733;SDS011;11029;47.820;10.534;2023-07-29T06:39:19;3.00;;;2.45;;
21733;SDS011;11029;47.820;10.534;2023-07-29T06:41:45;2.75;;;2.55;;
21733;SDS011;11029;47.820;10.534;2023-07-29T06:44:12;2.83;;;2.40;;
21733;SDS011;11029;47.820;10.534;2023-07-29T06:46:39;2.72;;;2.25;;
21733;SDS011;11029;47.820;10.534;2023-07-29T06:49:06;3.97;;;3.05;;
21733;SDS011;11029;47.820;10.534;2023-07-29T06:51:33;2.67;;;2.40;;
21733;SDS011;11029;47.820;10.534;2023-07-29T06:54:02;3.15;;;2.70;;
21733;SDS011;11029;47.820;10.534;2023-07-29T06:56:29;2.90;;;2.60;;
21733;SDS011;11029;47.820;10.534;2023-07-29T06:58:56;3.13;;;2.70;;
21733;SDS011;11029;47.820;10.534;2023-07-29T07:01:22;2.85;;;2.47;;
21733;SDS011;11029;47.820;10.534;2023-07-29T07:03:49;3.17;;;2.72;;
21733;SDS011;11029;47.820;10.534;2023-07-29T07:06:16;2.90;;;2.70;;
21733;SDS011;11029;47.820;10.534;2023-07-29T07:08:43;2.85;;;2.40;;
21733;SDS011;11029;47.820;10.534;2023-07-29T07:11:10;7.20;;;2.72;;
21733;SDS011;11029;47.820;10.534;2023-07-29T07:13:37;2.90;;;2.63;;
21733;SDS011;11029;47.820;10.534;2023-07-29T07:16:03;3.42;;;2.50;;
21733;SDS011;11029;47.820;10.534;2023-07-29T07:18:30;2.92;;;2.67;;
21733;SDS011;11029;47.820;10.534;2023-07-29T07:20:57;3.17;;;2.72;;
21733;SDS011;11029;47.820;10.534;2023-07-29T07:23:24;2.67;;;2.42;;
21733;SDS011;11029;47.820;10.534;2023-07-29T07:25:50;2.75;;;2.55;;
21733;SDS011;11029;47.820;10.534;2023-07-29T07:28:17;2.75;;;2.50;;
21733;SDS011;11029;47.820;10.534;2023-07-29T07:30:44;2.42;;;2.15;;
21733;SDS011;11029;47.820;10.534;2023-07-29T07:33:11;2.45;;;2.20;;
21733;SDS011;11029;47.820;10.534;2023-07-29T07:35:37;2.38;;;2.17;;
21733;SDS011;11029;47.820;10.534;2023-07-29T07:38:04;2.95;;;2.63;;
21733;SDS011;11029;47.820;10.534;2023-07-29T07:40:33;3.17;;;2.58;;
21733;SDS011;11029;47.820;10.534;2023-07-29T07:43:00;3.30;;;2.50;;
21733;SDS011;11029;47.820;10.534;2023-07-29T07:45:27;2.50;;;2.30;;
21733;SDS011;11029;47.820;10.534;2023-07-29T07:47:54;3.13;;;2.83;;
21733;SDS011;11029;47.820;10.534;2023-07-29T07:50:21;2.95;;;2.50;;
21733;SDS011;11029;47.820;10.534;2023-07-29T07:52:48;7.15;;;3.08;;
21733;SDS011;11029;47.820;10.534;2023-07-29T07:55:14;3.55;;;2.30;;
21733;SDS011;11029;47.820;10.534;2023-07-29T07:57:41;2.63;;;2.17;;
21733;SDS011;11029;47.820;10.534;2023-07-29T08:00:08;3.00;;;2.47;;
21733;SDS011;11029;47.820;10.534;2023-07-29T08:02:38;3.53;;;2.50;;
21733;SDS011;11029;47.820;10.534;2023-07-29T08:05:05;3.47;;;2.22;;
21733;SDS011;11029;47.820;10.534;2023-07-29T08:07:32;3.90;;;2.60;;
21733;SDS011;11029;47.820;10.534;2023-07-29T08:09:59;2.92;;;2.55;;
21733;SDS011;11029;47.820;10.534;2023-07-29T08:12:26;2.78;;;2.38;;
21733;SDS011;11029;47.820;10.534;2023-07-29T08:14:53;6.20;;;2.60;;
21733;SDS011;11029;47.820;10.534;2023-07-29T08:17:19;3.75;;;2.13;;
21733;SDS011;11029;47.820;10.534;2023-07-29T08:19:46;3.72;;;2.88;;
21733;SDS011;11029;47.820;10.534;2023-07-29T08:22:13;3.60;;;2.80;;
21733;SDS011;11029;47.820;10.534;2023-07-29T08:24:40;3.05;;;2.70;;
21733;SDS011;11029;47.820;10.534;2023-07-29T08:27:06;2.75;;;2.40;;
21733;SDS011;11029;47.820;10.534;2023-07-29T08:29:33;4.18;;;2.60;;
21733;SDS011;11029;47.820;10.534;2023-07-29T08:32:00;3.45;;;3.15;;
21733;SDS011;11029;47.820;10.534;2023-07-29T08:34:26;3.03;;;2.78;;
21733;SDS011;11029;47.820;10.534;2023-07-29T08:36:53;3.05;;;2.72;;
21733;SDS011;11029;47.820;10.534;2023-07-29T08:39:20;5.07;;;2.90;;
21733;SDS011;11029;47.820;10.534;2023-07-29T08:41:54;3.50;;;3.08;;
21733;SDS011;11029;47.820;10.534;2023-07-29T08:44:35;3.25;;;2.90;;
21733;SDS011;11029;47.820;10.534;2023-07-29T08:47:06;3.55;;;3.03;;
21733;SDS011;11029;47.820;10.534;2023-07-29T08:49:33;3.10;;;2.80;;
21733;SDS011;11029;47.820;10.534;2023-07-29T08:52:01;3.33;;;3.03;;
21733;SDS011;11029;47.820;10.534;2023-07-29T08:54:30;4.65;;;3.08;;
21733;SDS011;11029;47.820;10.534;2023-07-29T08:56:57;3.50;;;3.08;;
21733;SDS011;11029;47.820;10.534;2023-07-29T08:59:25;3.00;;;2.50;;
21733;SDS011;11029;47.820;10.534;2023-07-29T09:01:53;3.40;;;3.10;;
21733;SDS011;11029;47.820;10.534;2023-07-29T09:04:23;4.47;;;3.10;;
21733;SDS011;11029;47.820;10.534;2023-07-29T09:06:51;4.35;;;2.70;;
21733;SDS011;11029;47.820;10.534;2023-07-29T09:09:20;3.65;;;3.30;;
21733;SDS011;11029;47.820;10.534;2023-07-29T09:11:47;4.03;;;3.22;;
21733;SDS011;11029;47.820;10.534;2023-07-29T09:14:15;4.35;;;3.20;;
21733;SDS011;11029;47.820;10.534;2023-07-29T09:16:41;5.32;;;3.20;;
21733;SDS011;11029;47.820;10.534;2023-07-29T09:19:09;3.83;;;3.05;;
21733;SDS011;11029;47.820;10.534;2023-07-29T09:21:38;4.00;;;2.95;;
21733;SDS011;11029;47.820;10.534;2023-07-29T09:24:06;4.32;;;2.97;;
21733;SDS011;11029;47.820;10.534;2023-07-29T09:26:34;3.30;;;3.00;;
21733;SDS011;11029;47.820;10.534;2023-07-29T09:29:02;2.92;;;2.63;;
21733;SDS011;11029;47.820;10.534;2023-07-29T09:31:29;3.80;;;3.13;;
21733;SDS011;11029;47.820;10.534;2023-07-29T09:34:00;3.35;;;2.97;;
21733;SDS011;11029;47.820;10.534;2023-07-29T09:36:29;3.80;;;3.40;;
21733;SDS011;11029;47.820;10.534;2023-07-29T09:38:57;3.15;;;2.85;;
21733;SDS011;11029;47.820;10.534;2023-07-29T09:41:25;3.22;;;3.00;;
21733;SDS011;11029;47.820;10.534;2023-07-29T09:43:57;3.05;;;2.85;;
21733;SDS011;11029;47.820;10.534;2023-07-29T09:46:24;4.03;;;2.90;;
21733;SDS011;11029;47.820;10.534;2023-07-29T09:48:53;3.50;;;3.20;;
21733;SDS011;11029;47.820;10.534;2023-07-29T09:51:22;4.78;;;2.85;;
21733;SDS011;11029;47.820;10.534;2023-07-29T09:53:49;4.78;;;2.67;;
21733;SDS011;11029;47.820;10.534;2023-07-29T09:56:17;3.10;;;2.80;;
21733;SDS011;11029;47.820;10.534;2023-07-29T09:58:50;2.63;;;2.38;;
21733;SDS011;11029;47.820;10.534;2023-07-29T10:01:17;3.35;;;2.83;;
21733;SDS011;11029;47.820;10.534;2023-07-29T10:03:44;2.80;;;2.60;;
21733;SDS011;11029;47.820;10.534;2023-07-29T10:06:12;2.65;;;2.33;;
21733;SDS011;11029;47.820;10.534;2023-07-29T10:08:40;2.88;;;2.25;;
21733;SDS011;11029;47.820;10.534;2023-07-29T10:11:08;4.82;;;2.30;;
21733;SDS011;11029;47.820;10.534;2023-07-29T10:13:36;2.80;;;2.60;;
21733;SDS011;11029;47.820;10.534;2023-07-29T10:16:04;2.83;;;2.30;;
21733;SDS011;11029;47.820;10.534;2023-07-29T10:18:31;3.03;;;2.40;;
21733;SDS011;11029;47.820;10.534;2023-07-29T10:20:59;2.45;;;2.22;;
21733;SDS011;11029;47.820;10.534;2023-07-29T10:23:28;3.60;;;2.60;;
21733;SDS011;11029;47.820;10.534;2023-07-29T10:26:04;4.25;;;2.50;;
21733;SDS011;11029;47.820;10.534;2023-07-29T10:28:32;2.50;;;2.22;;
21733;SDS011;11029;47.820;10.534;2023-07-29T10:31:02;3.63;;;2.17;;
21733;SDS011;11029;47.820;10.534;2023-07-29T10:33:31;3.17;;;2.60;;
21733;SDS011;11029;47.820;10.534;2023-07-29T10:36:00;2.55;;;2.35;;
21733;SDS011;11029;47.820;10.534;2023-07-29T10:38:27;2.40;;;2.20;;
21733;SDS011;11029;47.820;10.534;2023-07-29T10:40:55;2.67;;;2.28;;
21733;SDS011;11029;47.820;10.534;2023-07-29T10:45:55;2.75;;;2.25;;
21733;SDS011;11029;47.820;10.534;2023-07-29T10:48:40;3.92;;;2.45;;
21733;SDS011;11029;47.820;10.534;2023-07-29T10:53:56;2.47;;;2.28;;
21733;SDS011;11029;47.820;10.534;2023-07-29T10:56:25;2.65;;;2.33;;
21733;SDS011;11029;47.820;10.534;2023-07-29T10:58:57;3.97;;;2.70;;
21733;SDS011;11029;47.820;10.534;2023-07-29T11:01:57;2.80;;;2.50;;
21733;SDS011;11029;47.820;10.534;2023-07-29T11:04:28;2.35;;;2.10;;
21733;SDS011;11029;47.820;10.534;2023-07-29T11:15:04;3.70;;;2.55;;
21733;SDS011;11029;47.820;10.534;2023-07-29T11:17:55;2.55;;;2.35;;
21733;SDS011;11029;47.820;10.534;2023-07-29T11:20:26;3.75;;;2.45;;
21733;SDS011;11029;47.820;10.534;2023-07-29T11:22:55;3.28;;;2.97;;
21733;SDS011;11029;47.820;10.534;2023-07-29T11:25:23;3.40;;;2.70;;
21733;SDS011;11029;47.820;10.534;2023-07-29T11:27:51;4.20;;;3.13;;
21733;SDS011;11029;47.820;10.534;2023-07-29T11:30:20;2.95;;;2.67;;
21733;SDS011;11029;47.820;10.534;2023-07-29T11:32:49;4.55;;;2.70;;
21733;SDS011;11029;47.820;10.534;2023-07-29T11:35:17;2.85;;;2.55;;
21733;SDS011;11029;47.820;10.534;2023-07-29T11:37:45;2.80;;;2.60;;
21733;SDS011;11029;47.820;10.534;2023-07-29T11:40:14;2.90;;;2.60;;
21733;SDS011;11029;47.820;10.534;2023-07-29T11:42:42;2.72;;;2.50;;
21733;SDS011;11029;47.820;10.534;2023-07-29T11:45:09;3.22;;;2.92;;
21733;SDS011;11029;47.820;10.534;2023-07-29T11:47:37;3.65;;;3.00;;
21733;SDS011;11029;47.820;10.534;2023-07-29T11:50:07;3.50;;;2.65;;
21733;SDS011;11029;47.820;10.534;2023-07-29T11:52:40;2.97;;;2.67;;
21733;SDS011;11029;47.820;10.534;2023-07-29T11:55:08;4.18;;;2.60;;
21733;SDS011;11029;47.820;10.534;2023-07-29T11:57:36;3.60;;;2.70;;
21733;SDS011;11029;47.820;10.534;2023-07-29T12:00:07;3.42;;;3.10;;
21733;SDS011;11029;47.820;10.534;2023-07-29T12:02:37;3.67;;;2.78;;
21733;SDS011;11029;47.820;10.534;2023-07-29T12:05:05;3.08;;;2.83;;
21733;SDS011;11029;47.820;10.534;2023-07-29T12:07:34;4.80;;;2.92;;
21733;SDS011;11029;47.820;10.534;2023-07-29T12:10:02;3.05;;;2.78;;
21733;SDS011;11029;47.820;10.534;2023-07-29T12:12:29;2.90;;;2.47;;
21733;SDS011;11029;47.820;10.534;2023-07-29T12:14:56;3.00;;;2.70;;
21733;SDS011;11029;47.820;10.534;2023-07-29T12:17:23;3.47;;;2.67;;
21733;SDS011;11029;47.820;10.534;2023-07-29T12:19:53;2.80;;;2.60;;
21733;SDS011;11029;47.820;10.534;2023-07-29T12:22:21;3.83;;;2.53;;
21733;SDS011;11029;47.820;10.534;2023-07-29T12:24:48;3.25;;;2.60;;
21733;SDS011;11029;47.820;10.534;2023-07-29T12:27:17;3.72;;;2.50;;
21733;SDS011;11029;47.820;10.534;2023-07-29T12:29:45;3.10;;;2.58;;
21733;SDS011;11029;47.820;10.534;2023-07-29T12:32:14;3.05;;;2.50;;
21733;SDS011;11029;47.820;10.534;2023-07-29T12:34:41;2.58;;;2.38;;
21733;SDS011;11029;47.820;10.534;2023-07-29T12:37:08;4.60;;;2.75;;
21733;SDS011;11029;47.820;10.534;2023-07-29T12:39:35;5.75;;;2.53;;
21733;SDS011;11029;47.820;10.534;2023-07-29T12:44:35;2.88;;;2.30;;
21733;SDS011;11029;47.820;10.534;2023-07-29T12:47:04;2.65;;;2.40;;
21733;SDS011;11029;47.820;10.534;2023-07-29T12:49:32;2.95;;;2.70;;
21733;SDS011;11029;47.820;10.534;2023-07-29T12:51:59;3.00;;;2.70;;
21733;SDS011;11029;47.820;10.534;2023-07-29T12:54:26;2.78;;;2.08;;
21733;SDS011;11029;47.820;10.534;2023-07-29T12:56:53;2.83;;;2.03;;
21733;SDS011;11029;47.820;10.534;2023-07-29T12:59:20;3.08;;;2.50;;
21733;SDS011;11029;47.820;10.534;2023-07-29T13:01:47;4.07;;;2.50;;
21733;SDS011;11029;47.820;10.534;2023-07-29T13:04:14;2.53;;;2.33;;
21733;SDS011;11029;47.820;10.534;2023-07-29T13:06:41;2.53;;;2.25;;
21733;SDS011;11029;47.820;10.534;2023-07-29T13:09:07;4.10;;;2.58;;
21733;SDS011;11029;47.820;10.534;2023-07-29T13:11:34;2.85;;;2.60;;
21733;SDS011;11029;47.820;10.534;2023-07-29T13:14:01;3.13;;;2.55;;
21733;SDS011;11029;47.820;10.534;2023-07-29T13:16:28;2.35;;;2.15;;
21733;SDS011;11029;47.820;10.534;2023-07-29T13:18:55;2.40;;;2.20;;
21733;SDS011;11029;47.820;10.534;2023-07-29T13:21:23;3.83;;;2.70;;
21733;SDS011;11029;47.820;10.534;2023-07-29T13:23:50;2.00;;;1.90;;
21733;SDS011;11029;47.820;10.534;2023-07-29T13:26:18;2.75;;;2.55;;
21733;SDS011;11029;47.820;10.534;2023-07-29T13:28:45;5.07;;;2.85;;
21733;SDS011;11029;47.820;10.534;2023-07-29T13:31:11;2.53;;;2.30;;
21733;SDS011;11029;47.820;10.534;2023-07-29T13:33:39;2.90;;;2.70;;
21733;SDS011;11029;47.820;10.534;2023-07-29T13:36:06;6.50;;;2.95;;
21733;SDS011;11029;47.820;10.534;2023-07-29T13:38:34;2.70;;;2.50;;
21733;SDS011;11029;47.820;10.534;2023-07-29T13:41:01;2.10;;;2.00;;
21733;SDS011;11029;47.820;10.534;2023-07-29T13:43:29;3.65;;;2.38;;
21733;SDS011;11029;47.820;10.534;2023-07-29T13:45:55;2.90;;;2.60;;
21733;SDS011;11029;47.820;10.534;2023-07-29T13:48:22;3.13;;;2.50;;
21733;SDS011;11029;47.820;10.534;2023-07-29T13:50:49;2.72;;;2.50;;
21733;SDS011;11029;47.820;10.534;2023-07-29T13:53:17;3.67;;;2.30;;
21733;SDS011;11029;47.820;10.534;2023-07-29T13:55:44;3.05;;;2.60;;
21733;SDS011;11029;47.820;10.534;2023-07-29T13:58:10;3.28;;;2.42;;
21733;SDS011;11029;47.820;10.534;2023-07-29T14:00:37;3.42;;;2.53;;
21733;SDS011;11029;47.820;10.534;2023-07-29T14:03:04;3.00;;;2.70;;
21733;SDS011;11029;47.820;10.534;2023-07-29T14:05:31;2.92;;;2.63;;
21733;SDS011;11029;47.820;10.534;2023-07-29T14:07:58;3.53;;;2.47;;
21733;SDS011;11029;47.820;10.534;2023-07-29T14:10:24;3.00;;;2.60;;
21733;SDS011;11029;47.820;10.534;2023-07-29T14:12:51;2.72;;;2.53;;
21733;SDS011;11029;47.820;10.534;2023-07-29T14:15:18;2.83;;;2.47;;
21733;SDS011;11029;47.820;10.534;2023-07-29T14:17:45;2.90;;;2.70;;
21733;SDS011;11029;47.820;10.534;2023-07-29T14:20:12;3.13;;;2.83;;
21733;SDS011;11029;47.820;10.534;2023-07-29T14:22:39;3.55;;;2.60;;
21733;SDS011;11029;47.820;10.534;2023-07-29T14:25:06;2.67;;;2.47;;
21733;SDS011;11029;47.820;10.534;2023-07-29T14:27:33;2.90;;;2.50;;
21733;SDS011;11029;47.820;10.534;2023-07-29T14:30:00;5.43;;;3.08;;
21733;SDS011;11029;47.820;10.534;2023-07-29T14:32:28;3.58;;;3.20;;
21733;SDS011;11029;47.820;10.534;2023-07-29T14:34:54;3.13;;;2.67;;
21733;SDS011;11029;47.820;10.534;2023-07-29T14:37:21;3.28;;;2.67;;
21733;SDS011;11029;47.820;10.534;2023-07-29T14:39:48;3.15;;;2.85;;
21733;SDS011;11029;47.820;10.534;2023-07-29T14:42:15;4.75;;;2.90;;
21733;SDS011;11029;47.820;10.534;2023-07-29T14:44:41;3.55;;;2.97;;
21733;SDS011;11029;47.820;10.534;2023-07-29T14:47:08;4.25;;;2.85;;
21733;SDS011;11029;47.820;10.534;2023-07-29T14:49:35;3.22;;;2.92;;
21733;SDS011;11029;47.820;10.534;2023-07-29T14:52:02;3.25;;;2.88;;
21733;SDS011;11029;47.820;10.534;2023-07-29T14:54:29;4.57;;;3.33;;
21733;SDS011;11029;47.820;10.534;2023-07-29T14:56:56;3.00;;;2.70;;
21733;SDS011;11029;47.820;10.534;2023-07-29T14:59:23;2.40;;;2.20;;
21733;SDS011;11029;47.820;10.534;2023-07-29T15:01:50;3.38;;;3.00;;